Miami, Florida
Traffic Map
Current Weather Conditions
Miami, Florida
Broken Clouds
Broken Clouds
67°
Feels Like: 67°
Wind Chill: 67° Ceiling: 3900
Heat Index: 67° Visibility: 10mi
Dew Point: 59° Wind: 7mph
Humidity: 76% Direction: 280° (W)
Pressure: 29.96in Gusts: 0mph
Raw Report DataKMIA 200853Z 28006KT 10SM BKN039 19/15 A2996 RMK AO2 SLP145 T01940150 56014 $
Traffic Incident Summary
Active as of:
Severity:
Category:
InformationThere was an issue retrieving the traffic information for this location. Please try a different location or try again shortly.
Advertisements
At Last! Intellicast now available for iPhone and Android